Phyllis, Kentucky
Current Conditions -  °F | °C
As of 4:15 PM on Sunday 23 Nov 2014 (Local Time) from KPBX Reporting Station
Overcast Overcast  
Wind Chill: 56°   Ceiling: 9000
Heat Index: 56°   Visibility: 10mi
Dew Point: 49°   Wind: 10mph
Humidity: 79%   Direction: 130°SE
Pressure: 29.73"   Gusts: 21mph
Location:  37.44°N, 82.34°W
Report Text: KPBX 232115Z AUTO 13009G18KT 10SM OVC090 13/10 A2973 RMK AO2 T01310096
Loading
Personal Weather Stations






























Interactive Weather Map New forecast layout! Learn more

10-Day Weather Forecast

Advertisements
Track Severe Weather on mobile